Portada
METAR-TAF:

METAR-TAF

Aeroports :

Tongatapu, Tonga

latitud: 21-14S, longitud: 175-09W, altitud: 38 m

Observació

L'informe es va fer fa 24 minuts, a les 15:00 UTC
Vent 5 kt del Sud-Est
Temperatura 20°C
Humitat 88%
Pressió 1014 hPa
Visibilitat 10 km o més
Escasses núvols a una alçada de 1800 ft
Núvols disperses a una alçada de 11000 ft

METAR: NFTF 241500Z 14005KT 9999 FEW018 SCT110 20/18 Q1014

Hora: 04:24 (15:24 UTC)

Pronòstic

L'informe es va fer fa 4 hores i 19 minuts, a les 11:05 UTC
Pronòstic vàlid del 24 a les 12 UTC al 25 a les 12 UTC
Vent 9 kt del Sud-Est
Visibilitat 10 km o més
Escasses núvols a una alçada de 1600 ft
Cel ennuvolat a una alçada de 11000 ft

TAF: NFTF 241105Z 2412/2512 14009KT 9999 FEW016 BKN110

Observacions i pronòstics meteorològics de més de 4000 aeroports (METAR i TAF).

Les estacions disponibles són els punts grocs i vermells al mapa.

Posi el ratolí al punt desitjat per veure el nom de l'estació.

Feu clic per veure les observacions i els pronòstics meteorològics.

Per canviar el mapa: feu clic els botons verds amb una creu de color negre per apropar; al botó verd amb un guió per allunyar la imatge; o en les fletxes verdes per a mapes adjacents.


METAR-TAF: